Terminal Aerodrome Forecast
Issued by NWS Rapid City, SD

Home | Current Version | Previous Version | Text Only | Print | Product List | Glossary On
Versions: 1 2 3 4 5 6 7 8 9 10 11 12 13 14 15 16 17
000
FTUS43 KUNR 091124
TAFRAP
TAF
KRAP 091124Z 0912/1012 06011KT P6SM -SN SCT030 OVC050
     FM091600 03008KT P6SM OVC025
     FM091900 08009KT P6SM OVC050
     FM100500 14005KT 3SM -SN OVC015=

USA.gov is the U.S. government's official web portal to all federal, state and local government web resources and services.